sensor_id;sensor_type;location;lat;lon;timestamp;P1;durP1;ratioP1;P2;durP2;ratioP2
10825;SDS011;5466;55.898;14.094;2023-10-13T00:01:05;29.00;;;4.83;;
10825;SDS011;5466;55.898;14.094;2023-10-13T00:03:07;28.27;;;5.57;;
10825;SDS011;5466;55.898;14.094;2023-10-13T00:05:18;24.63;;;4.30;;
10825;SDS011;5466;55.898;14.094;2023-10-13T00:07:19;22.00;;;5.40;;
10825;SDS011;5466;55.898;14.094;2023-10-13T00:09:20;23.07;;;4.10;;
10825;SDS011;5466;55.898;14.094;2023-10-13T00:11:25;26.77;;;4.43;;
10825;SDS011;5466;55.898;14.094;2023-10-13T00:13:27;31.93;;;4.33;;
10825;SDS011;5466;55.898;14.094;2023-10-13T00:15:28;30.07;;;6.07;;
10825;SDS011;5466;55.898;14.094;2023-10-13T00:17:29;24.57;;;4.03;;
10825;SDS011;5466;55.898;14.094;2023-10-13T00:19:32;32.17;;;4.43;;
10825;SDS011;5466;55.898;14.094;2023-10-13T00:21:37;32.73;;;4.70;;
10825;SDS011;5466;55.898;14.094;2023-10-13T00:23:39;33.03;;;5.70;;
10825;SDS011;5466;55.898;14.094;2023-10-13T00:25:43;34.73;;;5.97;;
10825;SDS011;5466;55.898;14.094;2023-10-13T00:27:49;32.73;;;5.73;;
10825;SDS011;5466;55.898;14.094;2023-10-13T00:29:52;25.67;;;4.93;;
10825;SDS011;5466;55.898;14.094;2023-10-13T00:32:12;26.40;;;4.67;;
10825;SDS011;5466;55.898;14.094;2023-10-13T00:34:13;26.70;;;4.90;;
10825;SDS011;5466;55.898;14.094;2023-10-13T00:36:27;28.40;;;5.53;;
10825;SDS011;5466;55.898;14.094;2023-10-13T00:38:28;38.80;;;4.90;;
10825;SDS011;5466;55.898;14.094;2023-10-13T00:40:28;24.47;;;5.10;;
10825;SDS011;5466;55.898;14.094;2023-10-13T00:42:29;36.13;;;4.83;;
10825;SDS011;5466;55.898;14.094;2023-10-13T00:44:51;29.23;;;5.07;;
10825;SDS011;5466;55.898;14.094;2023-10-13T00:46:54;35.03;;;4.70;;
10825;SDS011;5466;55.898;14.094;2023-10-13T00:48:56;23.97;;;4.90;;
10825;SDS011;5466;55.898;14.094;2023-10-13T00:50:58;23.53;;;5.37;;
10825;SDS011;5466;55.898;14.094;2023-10-13T00:53:02;35.47;;;5.63;;
10825;SDS011;5466;55.898;14.094;2023-10-13T00:55:04;32.80;;;4.50;;
10825;SDS011;5466;55.898;14.094;2023-10-13T00:57:08;20.50;;;4.07;;
10825;SDS011;5466;55.898;14.094;2023-10-13T00:59:26;31.70;;;4.60;;
10825;SDS011;5466;55.898;14.094;2023-10-13T01:01:26;27.67;;;4.87;;
10825;SDS011;5466;55.898;14.094;2023-10-13T01:03:32;21.20;;;4.90;;
10825;SDS011;5466;55.898;14.094;2023-10-13T01:05:33;22.00;;;4.70;;
10825;SDS011;5466;55.898;14.094;2023-10-13T01:07:34;30.87;;;5.07;;
10825;SDS011;5466;55.898;14.094;2023-10-13T01:09:40;20.53;;;4.53;;
10825;SDS011;5466;55.898;14.094;2023-10-13T01:11:47;27.97;;;4.70;;
10825;SDS011;5466;55.898;14.094;2023-10-13T01:13:52;34.10;;;5.93;;
10825;SDS011;5466;55.898;14.094;2023-10-13T01:15:53;32.93;;;5.57;;
10825;SDS011;5466;55.898;14.094;2023-10-13T01:17:54;29.03;;;5.10;;
10825;SDS011;5466;55.898;14.094;2023-10-13T01:19:56;25.33;;;4.10;;
10825;SDS011;5466;55.898;14.094;2023-10-13T01:21:58;34.10;;;5.50;;
10825;SDS011;5466;55.898;14.094;2023-10-13T01:24:02;34.50;;;5.80;;
10825;SDS011;5466;55.898;14.094;2023-10-13T01:26:07;33.80;;;5.73;;
10825;SDS011;5466;55.898;14.094;2023-10-13T01:28:09;27.97;;;5.57;;
10825;SDS011;5466;55.898;14.094;2023-10-13T01:30:10;38.43;;;5.57;;
10825;SDS011;5466;55.898;14.094;2023-10-13T01:32:11;27.20;;;5.03;;
10825;SDS011;5466;55.898;14.094;2023-10-13T01:34:13;39.07;;;4.80;;
10825;SDS011;5466;55.898;14.094;2023-10-13T01:36:21;39.37;;;6.37;;
10825;SDS011;5466;55.898;14.094;2023-10-13T01:38:22;32.87;;;5.23;;
10825;SDS011;5466;55.898;14.094;2023-10-13T01:40:23;39.47;;;6.33;;
10825;SDS011;5466;55.898;14.094;2023-10-13T01:42:28;26.90;;;6.10;;
10825;SDS011;5466;55.898;14.094;2023-10-13T01:44:30;31.33;;;5.63;;
10825;SDS011;5466;55.898;14.094;2023-10-13T01:46:32;36.93;;;5.57;;
10825;SDS011;5466;55.898;14.094;2023-10-13T01:48:36;35.60;;;5.60;;
10825;SDS011;5466;55.898;14.094;2023-10-13T01:50:40;32.30;;;5.40;;
10825;SDS011;5466;55.898;14.094;2023-10-13T01:52:40;22.10;;;6.07;;
10825;SDS011;5466;55.898;14.094;2023-10-13T01:54:42;28.67;;;5.50;;
10825;SDS011;5466;55.898;14.094;2023-10-13T01:56:46;27.77;;;5.77;;
10825;SDS011;5466;55.898;14.094;2023-10-13T01:58:48;40.23;;;6.80;;
10825;SDS011;5466;55.898;14.094;2023-10-13T02:00:49;26.33;;;5.53;;
10825;SDS011;5466;55.898;14.094;2023-10-13T02:02:50;32.53;;;5.37;;
10825;SDS011;5466;55.898;14.094;2023-10-13T02:04:50;35.60;;;6.20;;
10825;SDS011;5466;55.898;14.094;2023-10-13T02:07:11;36.67;;;6.03;;
10825;SDS011;5466;55.898;14.094;2023-10-13T02:09:15;29.07;;;4.80;;
10825;SDS011;5466;55.898;14.094;2023-10-13T02:11:29;27.33;;;5.93;;
10825;SDS011;5466;55.898;14.094;2023-10-13T02:13:30;26.37;;;5.63;;
10825;SDS011;5466;55.898;14.094;2023-10-13T02:15:31;21.00;;;4.63;;
10825;SDS011;5466;55.898;14.094;2023-10-13T02:17:34;35.90;;;5.47;;
10825;SDS011;5466;55.898;14.094;2023-10-13T02:19:42;25.80;;;5.07;;
10825;SDS011;5466;55.898;14.094;2023-10-13T02:21:46;42.50;;;6.03;;
10825;SDS011;5466;55.898;14.094;2023-10-13T02:23:58;37.47;;;6.37;;
10825;SDS011;5466;55.898;14.094;2023-10-13T02:26:04;33.40;;;6.38;;
10825;SDS011;5466;55.898;14.094;2023-10-13T02:28:11;28.58;;;5.20;;
10825;SDS011;5466;55.898;14.094;2023-10-13T02:30:21;26.47;;;5.07;;
10825;SDS011;5466;55.898;14.094;2023-10-13T02:32:24;37.50;;;6.00;;
10825;SDS011;5466;55.898;14.094;2023-10-13T02:34:26;34.45;;;5.97;;
10825;SDS011;5466;55.898;14.094;2023-10-13T02:36:27;30.17;;;6.00;;
10825;SDS011;5466;55.898;14.094;2023-10-13T02:38:36;31.13;;;5.63;;
10825;SDS011;5466;55.898;14.094;2023-10-13T02:40:46;35.65;;;6.13;;
10825;SDS011;5466;55.898;14.094;2023-10-13T02:42:47;37.10;;;6.20;;
10825;SDS011;5466;55.898;14.094;2023-10-13T02:44:47;35.53;;;5.10;;
10825;SDS011;5466;55.898;14.094;2023-10-13T02:46:48;34.05;;;5.38;;
10825;SDS011;5466;55.898;14.094;2023-10-13T02:48:50;35.30;;;5.50;;
10825;SDS011;5466;55.898;14.094;2023-10-13T02:50:57;32.92;;;5.97;;
10825;SDS011;5466;55.898;14.094;2023-10-13T02:53:02;35.93;;;5.93;;
10825;SDS011;5466;55.898;14.094;2023-10-13T02:55:02;36.87;;;5.97;;
10825;SDS011;5466;55.898;14.094;2023-10-13T02:57:08;39.85;;;5.55;;
10825;SDS011;5466;55.898;14.094;2023-10-13T02:59:10;33.25;;;5.45;;
10825;SDS011;5466;55.898;14.094;2023-10-13T03:01:12;38.30;;;5.80;;
10825;SDS011;5466;55.898;14.094;2023-10-13T03:03:18;22.35;;;4.75;;
10825;SDS011;5466;55.898;14.094;2023-10-13T03:05:19;33.30;;;5.57;;
10825;SDS011;5466;55.898;14.094;2023-10-13T03:07:22;27.45;;;5.53;;
10825;SDS011;5466;55.898;14.094;2023-10-13T03:09:23;37.78;;;5.75;;
10825;SDS011;5466;55.898;14.094;2023-10-13T03:11:23;35.00;;;5.55;;
10825;SDS011;5466;55.898;14.094;2023-10-13T03:13:24;39.75;;;6.07;;
10825;SDS011;5466;55.898;14.094;2023-10-13T03:15:26;26.92;;;4.60;;
10825;SDS011;5466;55.898;14.094;2023-10-13T03:17:30;37.38;;;4.95;;
10825;SDS011;5466;55.898;14.094;2023-10-13T03:19:34;30.95;;;4.55;;
10825;SDS011;5466;55.898;14.094;2023-10-13T03:21:38;31.33;;;5.05;;
10825;SDS011;5466;55.898;14.094;2023-10-13T03:23:44;28.13;;;5.28;;
10825;SDS011;5466;55.898;14.094;2023-10-13T03:25:46;35.03;;;6.32;;
10825;SDS011;5466;55.898;14.094;2023-10-13T03:27:50;29.90;;;4.83;;
10825;SDS011;5466;55.898;14.094;2023-10-13T03:29:51;32.17;;;5.60;;
10825;SDS011;5466;55.898;14.094;2023-10-13T03:31:56;29.00;;;5.25;;
10825;SDS011;5466;55.898;14.094;2023-10-13T03:34:07;29.73;;;5.50;;
10825;SDS011;5466;55.898;14.094;2023-10-13T03:36:13;31.87;;;4.93;;
10825;SDS011;5466;55.898;14.094;2023-10-13T03:38:33;23.97;;;4.43;;
10825;SDS011;5466;55.898;14.094;2023-10-13T03:40:36;30.07;;;5.53;;
10825;SDS011;5466;55.898;14.094;2023-10-13T03:42:38;27.07;;;4.97;;
10825;SDS011;5466;55.898;14.094;2023-10-13T03:44:40;22.33;;;4.47;;
10825;SDS011;5466;55.898;14.094;2023-10-13T03:46:46;24.93;;;5.17;;
10825;SDS011;5466;55.898;14.094;2023-10-13T03:48:49;15.97;;;4.43;;
10825;SDS011;5466;55.898;14.094;2023-10-13T03:51:01;15.60;;;3.73;;
10825;SDS011;5466;55.898;14.094;2023-10-13T03:53:10;31.80;;;4.80;;
10825;SDS011;5466;55.898;14.094;2023-10-13T03:55:13;23.60;;;4.53;;
10825;SDS011;5466;55.898;14.094;2023-10-13T03:57:17;27.00;;;5.33;;
10825;SDS011;5466;55.898;14.094;2023-10-13T03:59:18;19.77;;;4.63;;
10825;SDS011;5466;55.898;14.094;2023-10-13T04:01:19;18.40;;;4.20;;
10825;SDS011;5466;55.898;14.094;2023-10-13T04:03:25;18.90;;;4.40;;
10825;SDS011;5466;55.898;14.094;2023-10-13T04:05:33;18.57;;;4.37;;
10825;SDS011;5466;55.898;14.094;2023-10-13T04:07:46;25.07;;;4.80;;
10825;SDS011;5466;55.898;14.094;2023-10-13T04:10:06;21.80;;;4.60;;
10825;SDS011;5466;55.898;14.094;2023-10-13T04:12:39;20.40;;;3.73;;
10825;SDS011;5466;55.898;14.094;2023-10-13T04:15:00;28.17;;;5.03;;
10825;SDS011;5466;55.898;14.094;2023-10-13T04:17:06;24.13;;;4.50;;
10825;SDS011;5466;55.898;14.094;2023-10-13T04:19:14;21.33;;;4.20;;
10825;SDS011;5466;55.898;14.094;2023-10-13T04:21:22;28.33;;;5.43;;
10825;SDS011;5466;55.898;14.094;2023-10-13T04:23:41;33.37;;;6.70;;
10825;SDS011;5466;55.898;14.094;2023-10-13T04:26:04;29.93;;;5.23;;
10825;SDS011;5466;55.898;14.094;2023-10-13T04:28:21;24.27;;;5.37;;
10825;SDS011;5466;55.898;14.094;2023-10-13T04:30:51;20.63;;;4.83;;
10825;SDS011;5466;55.898;14.094;2023-10-13T04:32:54;27.90;;;4.77;;
10825;SDS011;5466;55.898;14.094;2023-10-13T04:35:17;19.07;;;4.80;;
10825;SDS011;5466;55.898;14.094;2023-10-13T04:37:18;24.77;;;4.97;;
10825;SDS011;5466;55.898;14.094;2023-10-13T04:39:42;33.50;;;5.23;;
10825;SDS011;5466;55.898;14.094;2023-10-13T04:41:43;26.47;;;5.50;;
10825;SDS011;5466;55.898;14.094;2023-10-13T04:43:49;27.60;;;4.90;;
10825;SDS011;5466;55.898;14.094;2023-10-13T04:45:58;26.53;;;4.40;;
10825;SDS011;5466;55.898;14.094;2023-10-13T04:48:21;25.97;;;5.80;;
10825;SDS011;5466;55.898;14.094;2023-10-13T04:50:22;22.87;;;4.70;;
10825;SDS011;5466;55.898;14.094;2023-10-13T04:52:27;27.80;;;5.13;;
10825;SDS011;5466;55.898;14.094;2023-10-13T04:55:01;22.57;;;4.73;;
10825;SDS011;5466;55.898;14.094;2023-10-13T04:57:21;33.00;;;5.27;;
10825;SDS011;5466;55.898;14.094;2023-10-13T04:59:32;28.97;;;5.00;;
10825;SDS011;5466;55.898;14.094;2023-10-13T05:01:37;26.77;;;5.40;;
10825;SDS011;5466;55.898;14.094;2023-10-13T05:04:09;32.93;;;6.27;;
10825;SDS011;5466;55.898;14.094;2023-10-13T05:06:31;24.83;;;5.80;;
10825;SDS011;5466;55.898;14.094;2023-10-13T05:08:44;24.43;;;6.03;;
10825;SDS011;5466;55.898;14.094;2023-10-13T05:11:04;35.77;;;6.33;;
10825;SDS011;5466;55.898;14.094;2023-10-13T05:13:24;28.10;;;6.30;;
10825;SDS011;5466;55.898;14.094;2023-10-13T05:15:44;23.97;;;5.43;;
10825;SDS011;5466;55.898;14.094;2023-10-13T05:18:07;29.53;;;6.13;;
10825;SDS011;5466;55.898;14.094;2023-10-13T05:20:26;33.47;;;6.30;;
10825;SDS011;5466;55.898;14.094;2023-10-13T05:22:45;29.10;;;5.37;;
10825;SDS011;5466;55.898;14.094;2023-10-13T05:25:04;23.97;;;5.47;;
10825;SDS011;5466;55.898;14.094;2023-10-13T05:27:23;23.43;;;5.97;;
10825;SDS011;5466;55.898;14.094;2023-10-13T05:29:44;25.37;;;6.90;;
10825;SDS011;5466;55.898;14.094;2023-10-13T05:32:04;31.77;;;6.53;;
10825;SDS011;5466;55.898;14.094;2023-10-13T05:34:24;30.83;;;5.93;;
10825;SDS011;5466;55.898;14.094;2023-10-13T05:36:43;32.17;;;7.07;;
10825;SDS011;5466;55.898;14.094;2023-10-13T05:39:02;31.60;;;6.37;;
10825;SDS011;5466;55.898;14.094;2023-10-13T05:41:21;31.70;;;7.73;;
10825;SDS011;5466;55.898;14.094;2023-10-13T05:43:40;25.20;;;6.10;;
10825;SDS011;5466;55.898;14.094;2023-10-13T05:46:01;20.80;;;5.97;;
10825;SDS011;5466;55.898;14.094;2023-10-13T05:48:40;27.57;;;6.70;;
10825;SDS011;5466;55.898;14.094;2023-10-13T05:51:02;32.00;;;6.17;;
10825;SDS011;5466;55.898;14.094;2023-10-13T05:53:21;33.90;;;6.83;;
10825;SDS011;5466;55.898;14.094;2023-10-13T05:55:40;26.60;;;6.73;;
10825;SDS011;5466;55.898;14.094;2023-10-13T05:57:59;28.30;;;7.80;;
10825;SDS011;5466;55.898;14.094;2023-10-13T06:00:18;31.03;;;6.93;;
10825;SDS011;5466;55.898;14.094;2023-10-13T06:02:37;34.10;;;8.03;;
10825;SDS011;5466;55.898;14.094;2023-10-13T06:04:56;24.13;;;7.07;;
10825;SDS011;5466;55.898;14.094;2023-10-13T06:07:15;32.87;;;7.33;;
10825;SDS011;5466;55.898;14.094;2023-10-13T06:09:34;27.83;;;7.33;;
10825;SDS011;5466;55.898;14.094;2023-10-13T06:11:53;32.40;;;7.63;;
10825;SDS011;5466;55.898;14.094;2023-10-13T06:14:13;26.07;;;7.10;;
10825;SDS011;5466;55.898;14.094;2023-10-13T06:16:32;24.87;;;7.13;;
10825;SDS011;5466;55.898;14.094;2023-10-13T06:18:51;30.37;;;7.33;;
10825;SDS011;5466;55.898;14.094;2023-10-13T06:21:10;29.00;;;7.63;;
10825;SDS011;5466;55.898;14.094;2023-10-13T06:23:29;27.05;;;7.63;;
10825;SDS011;5466;55.898;14.094;2023-10-13T06:25:51;27.95;;;6.95;;
10825;SDS011;5466;55.898;14.094;2023-10-13T06:28:11;32.67;;;7.43;;
10825;SDS011;5466;55.898;14.094;2023-10-13T06:30:30;30.92;;;7.13;;
10825;SDS011;5466;55.898;14.094;2023-10-13T06:32:33;20.58;;;6.15;;
10825;SDS011;5466;55.898;14.094;2023-10-13T06:34:33;21.77;;;6.32;;
10825;SDS011;5466;55.898;14.094;2023-10-13T06:36:47;24.75;;;7.15;;
10825;SDS011;5466;55.898;14.094;2023-10-13T06:38:48;21.95;;;5.72;;
10825;SDS011;5466;55.898;14.094;2023-10-13T06:40:57;23.20;;;5.82;;
10825;SDS011;5466;55.898;14.094;2023-10-13T06:42:57;27.85;;;6.57;;
10825;SDS011;5466;55.898;14.094;2023-10-13T06:45:11;30.55;;;5.68;;
10825;SDS011;5466;55.898;14.094;2023-10-13T06:47:12;33.25;;;6.07;;
10825;SDS011;5466;55.898;14.094;2023-10-13T06:49:13;28.88;;;6.38;;
10825;SDS011;5466;55.898;14.094;2023-10-13T06:51:14;21.38;;;6.03;;
10825;SDS011;5466;55.898;14.094;2023-10-13T06:53:20;24.10;;;6.07;;
10825;SDS011;5466;55.898;14.094;2023-10-13T06:55:20;19.63;;;5.00;;
10825;SDS011;5466;55.898;14.094;2023-10-13T06:57:27;17.80;;;4.82;;
10825;SDS011;5466;55.898;14.094;2023-10-13T06:59:35;23.23;;;5.15;;
10825;SDS011;5466;55.898;14.094;2023-10-13T07:01:36;24.15;;;5.43;;
10825;SDS011;5466;55.898;14.094;2023-10-13T07:03:42;20.08;;;5.22;;
10825;SDS011;5466;55.898;14.094;2023-10-13T07:05:43;21.23;;;5.10;;
10825;SDS011;5466;55.898;14.094;2023-10-13T07:07:44;25.17;;;5.55;;
10825;SDS011;5466;55.898;14.094;2023-10-13T07:09:48;18.88;;;4.20;;
10825;SDS011;5466;55.898;14.094;2023-10-13T07:11:58;27.70;;;5.07;;
10825;SDS011;5466;55.898;14.094;2023-10-13T07:14:03;22.48;;;4.05;;
10825;SDS011;5466;55.898;14.094;2023-10-13T07:16:10;20.63;;;4.75;;
10825;SDS011;5466;55.898;14.094;2023-10-13T07:18:14;24.20;;;5.45;;
10825;SDS011;5466;55.898;14.094;2023-10-13T07:20:17;30.95;;;4.95;;
10825;SDS011;5466;55.898;14.094;2023-10-13T07:22:24;17.90;;;4.43;;
10825;SDS011;5466;55.898;14.094;2023-10-13T07:24:27;19.45;;;5.65;;
10825;SDS011;5466;55.898;14.094;2023-10-13T07:26:32;25.98;;;5.40;;
10825;SDS011;5466;55.898;14.094;2023-10-13T07:28:34;24.15;;;4.07;;
10825;SDS011;5466;55.898;14.094;2023-10-13T07:30:43;18.02;;;4.68;;
10825;SDS011;5466;55.898;14.094;2023-10-13T07:32:53;26.35;;;5.55;;
10825;SDS011;5466;55.898;14.094;2023-10-13T07:34:59;23.75;;;4.43;;
10825;SDS011;5466;55.898;14.094;2023-10-13T07:37:10;21.33;;;4.60;;
10825;SDS011;5466;55.898;14.094;2023-10-13T07:39:12;18.77;;;4.30;;
10825;SDS011;5466;55.898;14.094;2023-10-13T07:41:23;20.63;;;4.78;;
10825;SDS011;5466;55.898;14.094;2023-10-13T07:43:30;32.70;;;4.90;;
10825;SDS011;5466;55.898;14.094;2023-10-13T07:45:32;20.63;;;4.93;;
10825;SDS011;5466;55.898;14.094;2023-10-13T07:47:38;21.77;;;5.32;;
10825;SDS011;5466;55.898;14.094;2023-10-13T07:49:39;19.48;;;4.40;;
10825;SDS011;5466;55.898;14.094;2023-10-13T07:51:40;27.67;;;5.78;;
10825;SDS011;5466;55.898;14.094;2023-10-13T07:53:49;21.33;;;4.32;;
10825;SDS011;5466;55.898;14.094;2023-10-13T07:55:50;25.15;;;5.07;;
10825;SDS011;5466;55.898;14.094;2023-10-13T07:58:04;19.23;;;4.78;;
10825;SDS011;5466;55.898;14.094;2023-10-13T08:00:08;20.92;;;4.60;;
10825;SDS011;5466;55.898;14.094;2023-10-13T08:02:25;19.02;;;4.78;;
10825;SDS011;5466;55.898;14.094;2023-10-13T08:04:46;19.20;;;6.40;;
10825;SDS011;5466;55.898;14.094;2023-10-13T08:06:47;16.63;;;4.55;;
10825;SDS011;5466;55.898;14.094;2023-10-13T08:08:48;28.05;;;6.03;;
10825;SDS011;5466;55.898;14.094;2023-10-13T08:10:50;17.48;;;4.93;;
10825;SDS011;5466;55.898;14.094;2023-10-13T08:12:55;14.25;;;4.75;;
10825;SDS011;5466;55.898;14.094;2023-10-13T08:14:58;15.88;;;4.05;;
10825;SDS011;5466;55.898;14.094;2023-10-13T08:17:13;23.92;;;4.45;;
10825;SDS011;5466;55.898;14.094;2023-10-13T08:19:15;27.35;;;4.80;;
10825;SDS011;5466;55.898;14.094;2023-10-13T08:21:16;14.52;;;3.78;;
10825;SDS011;5466;55.898;14.094;2023-10-13T08:23:18;18.50;;;4.53;;
10825;SDS011;5466;55.898;14.094;2023-10-13T08:25:34;26.45;;;5.00;;
10825;SDS011;5466;55.898;14.094;2023-10-13T08:27:53;20.48;;;5.13;;
10825;SDS011;5466;55.898;14.094;2023-10-13T08:30:26;20.63;;;4.43;;
10825;SDS011;5466;55.898;14.094;2023-10-13T08:32:27;26.55;;;5.55;;
10825;SDS011;5466;55.898;14.094;2023-10-13T08:34:29;23.40;;;5.00;;
10825;SDS011;5466;55.898;14.094;2023-10-13T08:36:39;17.13;;;4.28;;
10825;SDS011;5466;55.898;14.094;2023-10-13T08:38:41;15.13;;;4.15;;
10825;SDS011;5466;55.898;14.094;2023-10-13T08:40:57;24.48;;;5.22;;
10825;SDS011;5466;55.898;14.094;2023-10-13T08:43:17;22.55;;;5.40;;
10825;SDS011;5466;55.898;14.094;2023-10-13T08:45:18;25.25;;;4.63;;
10825;SDS011;5466;55.898;14.094;2023-10-13T08:47:22;20.73;;;4.30;;
10825;SDS011;5466;55.898;14.094;2023-10-13T08:49:25;17.00;;;3.85;;
10825;SDS011;5466;55.898;14.094;2023-10-13T08:51:31;20.40;;;4.32;;
10825;SDS011;5466;55.898;14.094;2023-10-13T08:53:43;15.07;;;4.10;;
10825;SDS011;5466;55.898;14.094;2023-10-13T08:55:45;21.40;;;4.40;;
10825;SDS011;5466;55.898;14.094;2023-10-13T08:58:02;18.42;;;4.18;;
10825;SDS011;5466;55.898;14.094;2023-10-13T09:00:13;18.85;;;4.65;;
10825;SDS011;5466;55.898;14.094;2023-10-13T09:02:49;14.52;;;3.90;;
10825;SDS011;5466;55.898;14.094;2023-10-13T09:05:27;20.88;;;4.47;;
10825;SDS011;5466;55.898;14.094;2023-10-13T09:08:00;15.38;;;3.80;;
10825;SDS011;5466;55.898;14.094;2023-10-13T09:10:08;14.98;;;3.60;;
10825;SDS011;5466;55.898;14.094;2023-10-13T09:12:32;15.40;;;3.85;;
10825;SDS011;5466;55.898;14.094;2023-10-13T09:14:33;15.52;;;3.40;;
10825;SDS011;5466;55.898;14.094;2023-10-13T09:16:39;11.32;;;3.38;;
10825;SDS011;5466;55.898;14.094;2023-10-13T09:18:42;18.58;;;4.53;;
10825;SDS011;5466;55.898;14.094;2023-10-13T09:20:46;11.68;;;3.55;;
10825;SDS011;5466;55.898;14.094;2023-10-13T09:23:07;18.20;;;6.10;;
10825;SDS011;5466;55.898;14.094;2023-10-13T09:25:09;10.45;;;3.63;;
10825;SDS011;5466;55.898;14.094;2023-10-13T09:27:13;15.27;;;3.80;;
10825;SDS011;5466;55.898;14.094;2023-10-13T09:29:17;15.73;;;4.30;;
10825;SDS011;5466;55.898;14.094;2023-10-13T09:31:21;13.63;;;4.05;;
10825;SDS011;5466;55.898;14.094;2023-10-13T09:33:27;19.10;;;4.45;;
10825;SDS011;5466;55.898;14.094;2023-10-13T09:35:40;14.18;;;3.58;;
10825;SDS011;5466;55.898;14.094;2023-10-13T09:37:43;17.33;;;4.05;;
10825;SDS011;5466;55.898;14.094;2023-10-13T09:39:46;10.90;;;3.45;;
10825;SDS011;5466;55.898;14.094;2023-10-13T09:41:52;17.58;;;3.95;;
10825;SDS011;5466;55.898;14.094;2023-10-13T09:43:55;13.20;;;3.85;;
10825;SDS011;5466;55.898;14.094;2023-10-13T09:45:58;18.00;;;4.10;;
10825;SDS011;5466;55.898;14.094;2023-10-13T09:48:10;14.60;;;4.20;;
10825;SDS011;5466;55.898;14.094;2023-10-13T09:50:16;15.38;;;4.47;;
10825;SDS011;5466;55.898;14.094;2023-10-13T09:52:24;19.42;;;4.25;;
10825;SDS011;5466;55.898;14.094;2023-10-13T09:54:35;13.32;;;4.32;;
10825;SDS011;5466;55.898;14.094;2023-10-13T09:56:51;13.30;;;3.97;;
10825;SDS011;5466;55.898;14.094;2023-10-13T09:58:58;17.40;;;4.50;;
10825;SDS011;5466;55.898;14.094;2023-10-13T10:01:14;17.75;;;4.35;;
10825;SDS011;5466;55.898;14.094;2023-10-13T10:03:32;22.08;;;4.30;;
10825;SDS011;5466;55.898;14.094;2023-10-13T10:05:58;19.58;;;4.70;;
10825;SDS011;5466;55.898;14.094;2023-10-13T10:08:23;12.38;;;4.35;;
10825;SDS011;5466;55.898;14.094;2023-10-13T10:10:51;15.10;;;5.63;;
10825;SDS011;5466;55.898;14.094;2023-10-13T10:13:01;19.50;;;5.32;;
10825;SDS011;5466;55.898;14.094;2023-10-13T10:15:26;23.98;;;6.13;;
10825;SDS011;5466;55.898;14.094;2023-10-13T10:17:30;23.40;;;5.75;;
10825;SDS011;5466;55.898;14.094;2023-10-13T10:19:48;17.42;;;5.25;;
10825;SDS011;5466;55.898;14.094;2023-10-13T10:21:50;22.55;;;6.18;;
10825;SDS011;5466;55.898;14.094;2023-10-13T10:24:17;16.85;;;5.75;;
10825;SDS011;5466;55.898;14.094;2023-10-13T10:26:29;25.15;;;7.30;;
10825;SDS011;5466;55.898;14.094;2023-10-13T10:28:40;27.00;;;6.70;;
10825;SDS011;5466;55.898;14.094;2023-10-13T10:30:42;16.85;;;6.10;;
10825;SDS011;5466;55.898;14.094;2023-10-13T10:32:43;15.45;;;5.57;;
10825;SDS011;5466;55.898;14.094;2023-10-13T10:34:49;18.50;;;6.05;;
10825;SDS011;5466;55.898;14.094;2023-10-13T10:36:55;16.38;;;6.45;;
10825;SDS011;5466;55.898;14.094;2023-10-13T10:38:58;16.17;;;6.03;;
10825;SDS011;5466;55.898;14.094;2023-10-13T10:41:03;18.15;;;6.50;;
10825;SDS011;5466;55.898;14.094;2023-10-13T10:43:06;13.40;;;5.70;;
10825;SDS011;5466;55.898;14.094;2023-10-13T10:45:09;19.52;;;5.85;;
10825;SDS011;5466;55.898;14.094;2023-10-13T10:47:15;14.80;;;5.63;;
10825;SDS011;5466;55.898;14.094;2023-10-13T10:49:31;17.23;;;5.60;;
10825;SDS011;5466;55.898;14.094;2023-10-13T10:51:40;17.10;;;6.38;;
10825;SDS011;5466;55.898;14.094;2023-10-13T10:53:45;12.23;;;6.25;;
10825;SDS011;5466;55.898;14.094;2023-10-13T10:55:46;15.77;;;5.93;;
10825;SDS011;5466;55.898;14.094;2023-10-13T10:57:46;12.40;;;6.00;;
10825;SDS011;5466;55.898;14.094;2023-10-13T10:59:58;7.95;;;4.72;;
10825;SDS011;5466;55.898;14.094;2023-10-13T11:02:15;5.20;;;4.70;;
10825;SDS011;5466;55.898;14.094;2023-10-13T11:04:18;8.68;;;5.35;;
10825;SDS011;5466;55.898;14.094;2023-10-13T11:06:23;11.07;;;5.65;;
10825;SDS011;5466;55.898;14.094;2023-10-13T11:08:26;10.25;;;5.20;;
10825;SDS011;5466;55.898;14.094;2023-10-13T11:10:32;6.88;;;5.38;;
10825;SDS011;5466;55.898;14.094;2023-10-13T11:12:38;9.45;;;5.00;;
10825;SDS011;5466;55.898;14.094;2023-10-13T11:14:39;10.00;;;5.43;;
10825;SDS011;5466;55.898;14.094;2023-10-13T11:16:47;9.15;;;5.70;;
10825;SDS011;5466;55.898;14.094;2023-10-13T11:19:03;8.52;;;6.75;;
10825;SDS011;5466;55.898;14.094;2023-10-13T11:21:06;11.82;;;7.57;;
10825;SDS011;5466;55.898;14.094;2023-10-13T11:23:11;7.72;;;6.80;;
10825;SDS011;5466;55.898;14.094;2023-10-13T11:25:19;13.68;;;7.43;;
10825;SDS011;5466;55.898;14.094;2023-10-13T11:27:30;12.48;;;7.90;;
10825;SDS011;5466;55.898;14.094;2023-10-13T11:29:49;11.32;;;7.65;;
10825;SDS011;5466;55.898;14.094;2023-10-13T11:31:52;10.93;;;7.70;;
10825;SDS011;5466;55.898;14.094;2023-10-13T11:33:58;10.13;;;7.13;;
10825;SDS011;5466;55.898;14.094;2023-10-13T11:36:02;14.40;;;10.73;;
10825;SDS011;5466;55.898;14.094;2023-10-13T11:38:03;11.88;;;8.48;;
10825;SDS011;5466;55.898;14.094;2023-10-13T11:40:13;11.80;;;7.60;;
10825;SDS011;5466;55.898;14.094;2023-10-13T11:42:34;9.05;;;6.22;;
10825;SDS011;5466;55.898;14.094;2023-10-13T11:44:36;9.18;;;5.82;;
10825;SDS011;5466;55.898;14.094;2023-10-13T11:46:43;8.90;;;5.68;;
10825;SDS011;5466;55.898;14.094;2023-10-13T11:48:44;7.47;;;5.50;;
10825;SDS011;5466;55.898;14.094;2023-10-13T11:50:46;6.32;;;4.93;;
10825;SDS011;5466;55.898;14.094;2023-10-13T11:52:47;10.48;;;4.60;;
10825;SDS011;5466;55.898;14.094;2023-10-13T11:54:47;7.50;;;5.00;;
10825;SDS011;5466;55.898;14.094;2023-10-13T11:56:48;9.00;;;5.50;;
10825;SDS011;5466;55.898;14.094;2023-10-13T11:58:49;5.55;;;4.40;;
10825;SDS011;5466;55.898;14.094;2023-10-13T12:00:50;7.03;;;4.57;;
10825;SDS011;5466;55.898;14.094;2023-10-13T12:02:53;7.57;;;5.07;;
10825;SDS011;5466;55.898;14.094;2023-10-13T12:05:13;5.63;;;4.32;;
10825;SDS011;5466;55.898;14.094;2023-10-13T12:07:17;6.53;;;4.15;;
10825;SDS011;5466;55.898;14.094;2023-10-13T12:09:23;4.57;;;3.97;;
10825;SDS011;5466;55.898;14.094;2023-10-13T12:11:24;5.80;;;4.28;;
10825;SDS011;5466;55.898;14.094;2023-10-13T12:13:30;5.80;;;3.95;;
10825;SDS011;5466;55.898;14.094;2023-10-13T12:15:32;5.68;;;4.22;;
10825;SDS011;5466;55.898;14.094;2023-10-13T12:17:59;4.88;;;4.00;;
10825;SDS011;5466;55.898;14.094;2023-10-13T12:20:03;7.43;;;3.85;;
10825;SDS011;5466;55.898;14.094;2023-10-13T12:22:10;4.00;;;3.40;;
10825;SDS011;5466;55.898;14.094;2023-10-13T12:24:16;4.82;;;3.80;;
10825;SDS011;5466;55.898;14.094;2023-10-13T12:26:35;4.00;;;3.35;;
10825;SDS011;5466;55.898;14.094;2023-10-13T12:28:38;3.53;;;3.22;;
10825;SDS011;5466;55.898;14.094;2023-10-13T12:30:41;4.00;;;3.60;;
10825;SDS011;5466;55.898;14.094;2023-10-13T12:32:52;4.47;;;3.53;;
10825;SDS011;5466;55.898;14.094;2023-10-13T12:35:06;4.38;;;3.20;;
10825;SDS011;5466;55.898;14.094;2023-10-13T12:37:07;4.53;;;3.83;;
10825;SDS011;5466;55.898;14.094;2023-10-13T12:39:24;3.88;;;3.20;;
10825;SDS011;5466;55.898;14.094;2023-10-13T12:41:44;3.83;;;3.10;;
10825;SDS011;5466;55.898;14.094;2023-10-13T12:44:03;2.97;;;2.65;;